createdAt,value
2017-12-16T00:00:13.013Z,8.10
2017-12-16T00:02:39.977Z,8.03
2017-12-16T00:05:06.930Z,6.93
2017-12-16T00:07:34.277Z,8.47
2017-12-16T00:10:01.177Z,7.10
2017-12-16T00:12:28.421Z,7.47
2017-12-16T00:14:55.301Z,6.90
2017-12-16T00:17:22.208Z,7.43
2017-12-16T00:19:49.098Z,7.63
2017-12-16T00:22:17.246Z,7.30
2017-12-16T00:24:44.162Z,7.50
2017-12-16T00:27:11.078Z,7.37
2017-12-16T00:29:37.985Z,7.87
2017-12-16T00:32:04.873Z,7.80
2017-12-16T00:34:31.793Z,9.37
2017-12-16T00:36:58.674Z,8.37
2017-12-16T00:39:25.983Z,8.83
2017-12-16T00:41:52.955Z,8.40
2017-12-16T00:44:19.833Z,7.60
2017-12-16T00:46:46.716Z,9.30
2017-12-16T00:49:13.625Z,8.30
2017-12-16T00:51:40.512Z,8.50
2017-12-16T00:54:07.531Z,8.80
2017-12-16T00:56:34.406Z,8.80
2017-12-16T00:59:01.313Z,7.77
2017-12-16T01:01:28.189Z,8.70
2017-12-16T01:03:55.097Z,8.60
2017-12-16T01:06:21.989Z,9.20
2017-12-16T01:08:48.937Z,8.80
2017-12-16T01:11:15.826Z,10.00
2017-12-16T01:13:43.139Z,8.87
2017-12-16T01:16:10.013Z,7.90
2017-12-16T01:18:37.291Z,7.90
2017-12-16T01:21:04.197Z,6.77
2017-12-16T01:23:31.077Z,7.70
2017-12-16T01:25:57.976Z,7.03
2017-12-16T01:28:24.889Z,6.80
2017-12-16T01:30:51.779Z,7.63
2017-12-16T01:33:18.696Z,6.00
2017-12-16T01:35:57.605Z,7.00
2017-12-16T01:38:28.432Z,6.80
2017-12-16T01:40:55.312Z,7.27
2017-12-16T01:43:22.233Z,7.03
2017-12-16T01:45:49.117Z,6.20
2017-12-16T01:48:15.994Z,6.13
2017-12-16T01:50:43.309Z,6.87
2017-12-16T01:53:10.207Z,6.33
2017-12-16T01:55:37.096Z,7.00
2017-12-16T01:58:04.003Z,5.60
2017-12-16T02:00:30.881Z,6.23
2017-12-16T02:02:57.785Z,5.83
2017-12-16T02:05:24.701Z,5.40
2017-12-16T02:07:51.596Z,5.70
2017-12-16T02:10:18.473Z,5.37
2017-12-16T02:12:45.394Z,5.70
2017-12-16T02:15:12.269Z,4.80
2017-12-16T02:17:39.171Z,5.10
2017-12-16T02:20:06.094Z,4.90
2017-12-16T02:22:33.370Z,5.20
2017-12-16T02:25:00.277Z,4.90
2017-12-16T02:27:27.185Z,5.40
2017-12-16T02:29:54.102Z,5.30
2017-12-16T02:32:20.989Z,5.00
2017-12-16T02:34:47.882Z,5.17
2017-12-16T02:37:15.188Z,5.40
2017-12-16T02:39:42.101Z,5.00
2017-12-16T02:42:09.011Z,5.07
2017-12-16T02:44:36.318Z,4.73
2017-12-16T02:47:03.246Z,4.73
2017-12-16T02:49:30.149Z,4.80
2017-12-16T02:51:57.052Z,5.20
2017-12-16T02:54:23.976Z,5.23
2017-12-16T02:56:50.857Z,4.80
2017-12-16T02:59:17.760Z,5.60
2017-12-16T03:01:44.677Z,4.93
2017-12-16T03:04:11.566Z,4.90
2017-12-16T03:06:38.477Z,5.03
2017-12-16T03:09:05.791Z,4.60
2017-12-16T03:11:32.705Z,4.67
2017-12-16T03:13:59.614Z,4.57
2017-12-16T03:16:26.501Z,5.13
2017-12-16T03:18:53.416Z,6.23
2017-12-16T03:21:20.694Z,7.20
2017-12-16T03:23:47.621Z,6.37
2017-12-16T03:26:14.901Z,7.70
2017-12-16T03:28:41.816Z,6.57
2017-12-16T03:31:09.086Z,6.00
2017-12-16T03:33:35.969Z,5.80
2017-12-16T03:36:02.884Z,5.87
2017-12-16T03:38:29.761Z,5.80
2017-12-16T03:40:56.687Z,7.20
2017-12-16T03:43:23.573Z,6.90
2017-12-16T03:45:50.465Z,6.07
2017-12-16T03:48:17.379Z,6.97
2017-12-16T03:50:44.689Z,6.03
2017-12-16T03:53:11.573Z,6.33
2017-12-16T03:55:38.452Z,6.30
2017-12-16T03:58:05.362Z,6.10
2017-12-16T04:00:32.265Z,6.43
2017-12-16T04:02:59.154Z,5.60
2017-12-16T04:05:26.053Z,6.77
2017-12-16T04:07:52.948Z,7.07
2017-12-16T04:10:20.276Z,7.03
2017-12-16T04:12:47.165Z,6.67
2017-12-16T04:15:14.498Z,7.77
2017-12-16T04:17:41.396Z,7.63
2017-12-16T04:20:08.280Z,8.20
2017-12-16T04:22:35.192Z,7.70
2017-12-16T04:25:02.069Z,8.47
2017-12-16T04:27:28.977Z,8.37
2017-12-16T04:29:55.857Z,7.80
2017-12-16T04:32:23.186Z,7.23
2017-12-16T04:34:50.087Z,8.23
2017-12-16T04:37:17.394Z,8.70
2017-12-16T04:39:44.321Z,8.87
2017-12-16T04:42:11.258Z,8.80
2017-12-16T04:44:38.187Z,8.13
2017-12-16T04:47:05.464Z,9.37
2017-12-16T04:49:32.348Z,9.37
2017-12-16T04:51:59.272Z,8.77
2017-12-16T04:54:26.153Z,7.93
2017-12-16T04:56:53.037Z,8.47
2017-12-16T04:59:19.944Z,7.83
2017-12-16T05:01:46.829Z,9.13
2017-12-16T05:04:13.783Z,8.23
2017-12-16T05:06:40.656Z,8.20
2017-12-16T05:09:07.573Z,9.37
2017-12-16T05:11:34.452Z,9.30
2017-12-16T05:14:01.369Z,9.27
2017-12-16T05:16:28.257Z,9.50
2017-12-16T05:18:55.172Z,9.70
2017-12-16T05:21:22.051Z,9.40
2017-12-16T05:23:48.939Z,9.83
2017-12-16T05:26:15.857Z,8.10
2017-12-16T05:28:43.137Z,8.43
2017-12-16T05:31:10.032Z,9.40
2017-12-16T05:33:36.941Z,8.03
2017-12-16T05:36:03.847Z,9.20
2017-12-16T05:38:30.783Z,10.07
2017-12-16T05:40:57.661Z,10.07
2017-12-16T05:43:24.560Z,9.10
2017-12-16T05:45:51.453Z,10.23
2017-12-16T05:48:18.369Z,10.30
2017-12-16T05:50:45.672Z,10.30
2017-12-16T05:53:12.566Z,10.30
2017-12-16T05:55:39.482Z,10.63
2017-12-16T05:58:06.449Z,11.00
2017-12-16T06:00:33.359Z,10.73
2017-12-16T06:03:00.257Z,9.63
2017-12-16T06:05:27.556Z,10.30
2017-12-16T06:07:54.493Z,12.07
2017-12-16T06:10:21.401Z,10.80
2017-12-16T06:12:48.685Z,12.00
2017-12-16T06:15:15.593Z,10.93
2017-12-16T06:17:42.510Z,12.80
2017-12-16T06:20:09.397Z,11.13
2017-12-16T06:22:36.706Z,10.50
2017-12-16T06:25:03.614Z,12.23
2017-12-16T06:27:30.545Z,12.17
2017-12-16T06:29:57.830Z,11.87
2017-12-16T06:32:24.733Z,11.17
2017-12-16T06:34:51.644Z,11.10
2017-12-16T06:37:18.546Z,11.23
2017-12-16T06:39:45.832Z,11.30
2017-12-16T06:42:12.747Z,11.60
2017-12-16T06:44:39.632Z,11.97
2017-12-16T06:47:06.539Z,11.17
2017-12-16T06:49:33.449Z,10.60
2017-12-16T06:52:00.449Z,11.73
2017-12-16T06:54:27.353Z,16.47
2017-12-16T06:56:54.268Z,14.43
2017-12-16T06:59:21.169Z,12.57
2017-12-16T07:01:48.060Z,13.90
2017-12-16T07:04:14.977Z,10.87
2017-12-16T07:06:41.865Z,12.50
2017-12-16T07:09:08.786Z,11.67
2017-12-16T07:11:35.715Z,11.93
2017-12-16T07:14:02.621Z,12.17
2017-12-16T07:16:29.933Z,12.50
2017-12-16T07:18:56.840Z,13.20
2017-12-16T07:21:23.757Z,12.43
2017-12-16T07:23:50.669Z,14.40
2017-12-16T07:26:17.581Z,12.97
2017-12-16T07:28:44.490Z,14.57
2017-12-16T07:31:11.488Z,12.90
2017-12-16T07:33:38.405Z,13.70
2017-12-16T07:36:05.693Z,12.47
2017-12-16T07:38:32.694Z,13.03
2017-12-16T07:40:59.974Z,12.90
2017-12-16T07:43:26.893Z,12.20
2017-12-16T07:45:54.181Z,13.20
2017-12-16T07:48:21.079Z,13.57
2017-12-16T07:50:47.994Z,14.73
2017-12-16T07:53:14.881Z,14.30
2017-12-16T07:55:41.801Z,14.30
2017-12-16T07:58:08.692Z,12.50
2017-12-16T08:00:35.981Z,15.93
2017-12-16T08:03:02.982Z,14.33
2017-12-16T08:05:30.262Z,14.20
2017-12-16T08:07:57.181Z,15.03
2017-12-16T08:10:24.528Z,15.13
2017-12-16T08:12:51.481Z,15.50
2017-12-16T08:15:18.411Z,12.30
2017-12-16T08:17:45.309Z,14.80
2017-12-16T08:20:12.189Z,14.53
2017-12-16T08:22:39.160Z,15.77
2017-12-16T08:25:06.064Z,15.17
2017-12-16T08:27:32.968Z,16.53
2017-12-16T08:30:00.258Z,15.20
2017-12-16T08:32:27.180Z,16.33
2017-12-16T08:34:54.142Z,17.87
2017-12-16T08:37:21.078Z,16.03
2017-12-16T08:39:48.093Z,15.23
2017-12-16T08:42:15.047Z,16.93
2017-12-16T08:44:42.398Z,16.47
2017-12-16T08:47:09.387Z,17.77
2017-12-16T08:49:36.292Z,17.23
2017-12-16T08:52:03.214Z,17.40
2017-12-16T08:54:30.176Z,17.50
2017-12-16T08:56:57.067Z,19.10
2017-12-16T08:59:23.998Z,19.57
2017-12-16T09:01:50.886Z,17.87
2017-12-16T09:04:17.764Z,17.60
2017-12-16T09:06:45.793Z,20.17
2017-12-16T09:09:12.673Z,17.60
2017-12-16T09:11:40.042Z,18.67
2017-12-16T09:14:06.918Z,19.30
2017-12-16T09:16:33.806Z,19.30
2017-12-16T09:19:00.769Z,18.07
2017-12-16T09:21:27.761Z,21.23
2017-12-16T09:23:54.669Z,18.80
2017-12-16T09:26:22.020Z,20.90
2017-12-16T09:28:48.969Z,19.63
2017-12-16T09:31:15.857Z,20.10
2017-12-16T09:33:42.860Z,22.03
2017-12-16T09:36:09.752Z,20.93
2017-12-16T09:38:36.641Z,20.80
2017-12-16T09:41:03.557Z,21.03
2017-12-16T09:43:30.545Z,20.97
2017-12-16T09:45:57.692Z,21.03
2017-12-16T09:48:24.641Z,21.23
2017-12-16T09:50:51.530Z,20.27
2017-12-16T09:53:18.435Z,21.87
2017-12-16T09:55:45.359Z,22.60
2017-12-16T09:58:12.333Z,21.50
2017-12-16T10:00:39.685Z,20.10
2017-12-16T10:03:06.634Z,21.07
2017-12-16T10:05:33.520Z,19.67
2017-12-16T10:08:00.441Z,21.07
2017-12-16T10:10:27.726Z,20.70
2017-12-16T10:12:54.712Z,19.33
2017-12-16T10:15:21.636Z,20.77
2017-12-16T10:17:48.531Z,19.40
2017-12-16T10:20:15.844Z,19.40
2017-12-16T10:22:42.729Z,20.23
2017-12-16T10:25:10.008Z,21.50
2017-12-16T10:27:36.908Z,19.93
2017-12-16T10:30:03.833Z,19.40
2017-12-16T10:32:30.717Z,21.47
2017-12-16T10:34:58.054Z,20.60
2017-12-16T10:37:25.013Z,20.77
2017-12-16T10:39:52.306Z,21.07
2017-12-16T10:42:19.185Z,19.93
2017-12-16T10:44:46.109Z,21.23
2017-12-16T10:47:12.989Z,19.60
2017-12-16T10:49:39.898Z,19.40
2017-12-16T10:52:06.826Z,19.90
2017-12-16T10:54:33.713Z,20.73
2017-12-16T10:57:00.626Z,20.80
2017-12-16T10:59:27.533Z,20.43
2017-12-16T11:01:54.818Z,17.60
2017-12-16T11:04:21.774Z,18.27
2017-12-16T11:06:48.657Z,18.30
2017-12-16T11:09:15.609Z,18.33
2017-12-16T11:11:42.494Z,17.10
2017-12-16T11:14:09.430Z,16.00
2017-12-16T11:16:36.729Z,14.47
2017-12-16T11:19:03.646Z,14.40
2017-12-16T11:21:30.538Z,14.33
2017-12-16T11:23:57.541Z,14.70
2017-12-16T11:26:24.436Z,13.00
2017-12-16T11:28:51.366Z,14.43
2017-12-16T11:31:18.257Z,12.43
2017-12-16T11:33:45.148Z,13.90
2017-12-16T11:36:12.065Z,12.23
2017-12-16T11:38:39.022Z,12.60
2017-12-16T11:41:06.269Z,12.00
2017-12-16T11:43:33.173Z,10.53
2017-12-16T11:46:00.533Z,10.00
2017-12-16T11:48:27.890Z,9.97
2017-12-16T11:50:54.773Z,10.17
2017-12-16T11:53:21.694Z,8.97
2017-12-16T11:55:48.981Z,10.57
2017-12-16T11:58:15.927Z,9.10
2017-12-16T12:00:42.895Z,9.60
2017-12-16T12:03:09.778Z,8.97
2017-12-16T12:05:37.085Z,9.03
2017-12-16T12:08:04.001Z,10.03
2017-12-16T12:10:30.889Z,9.87
2017-12-16T12:12:57.801Z,8.03
2017-12-16T12:15:24.704Z,9.57
2017-12-16T12:17:51.999Z,9.10
2017-12-16T12:20:18.913Z,8.10
2017-12-16T12:22:46.229Z,8.60
2017-12-16T12:25:13.123Z,7.93
2017-12-16T12:27:40.469Z,8.13
2017-12-16T12:30:07.746Z,7.80
2017-12-16T12:32:34.653Z,7.53
2017-12-16T12:35:01.558Z,7.80
2017-12-16T12:37:28.492Z,8.73
2017-12-16T12:39:55.364Z,7.70
2017-12-16T12:42:22.282Z,9.90
2017-12-16T12:44:49.214Z,7.77
2017-12-16T12:47:16.482Z,7.87
2017-12-16T12:49:43.490Z,7.47
2017-12-16T12:52:10.439Z,8.33
2017-12-16T12:54:37.785Z,6.90
2017-12-16T12:57:04.710Z,7.30
2017-12-16T12:59:31.598Z,7.90
2017-12-16T13:01:58.949Z,7.37
2017-12-16T13:04:26.289Z,7.97
2017-12-16T13:06:53.237Z,8.20
2017-12-16T13:09:20.263Z,9.07
2017-12-16T13:11:47.233Z,8.10
2017-12-16T13:14:14.158Z,9.03
2017-12-16T13:16:41.130Z,8.23
2017-12-16T13:19:08.032Z,8.77
2017-12-16T13:21:35.064Z,9.70
2017-12-16T13:24:01.970Z,9.67
2017-12-16T13:26:28.857Z,9.13
2017-12-16T13:28:55.858Z,9.63
2017-12-16T13:31:22.763Z,10.33
2017-12-16T13:33:49.705Z,9.67
2017-12-16T13:36:16.964Z,9.40
2017-12-16T13:38:43.844Z,8.57
2017-12-16T13:41:10.792Z,10.40
2017-12-16T13:43:38.149Z,9.40
2017-12-16T13:46:05.036Z,8.00
2017-12-16T13:48:31.953Z,9.83
2017-12-16T13:50:59.342Z,8.17
2017-12-16T13:53:26.241Z,9.90
2017-12-16T13:55:53.184Z,9.00
2017-12-16T13:58:20.125Z,8.00
2017-12-16T14:00:47.014Z,6.83
2017-12-16T14:03:13.914Z,7.57
2017-12-16T14:05:40.885Z,9.33
2017-12-16T14:08:08.226Z,6.90
2017-12-16T14:10:35.284Z,6.90
2017-12-16T14:13:02.678Z,7.27
2017-12-16T14:15:29.585Z,10.77
2017-12-16T14:17:56.888Z,8.03
2017-12-16T14:20:23.798Z,8.70
2017-12-16T14:22:51.133Z,7.10
2017-12-16T14:25:18.131Z,7.73
2017-12-16T14:27:45.099Z,7.63
2017-12-16T14:30:12.077Z,7.40
2017-12-16T14:32:38.990Z,7.40
2017-12-16T14:35:05.960Z,7.77
2017-12-16T14:37:32.932Z,8.07
2017-12-16T14:39:59.825Z,7.43
2017-12-16T14:42:26.857Z,8.30
2017-12-16T14:44:53.750Z,9.70
2017-12-16T14:47:20.636Z,8.80
2017-12-16T14:49:47.749Z,8.73
2017-12-16T14:52:15.029Z,6.90
2017-12-16T14:54:42.340Z,6.40
2017-12-16T14:57:09.248Z,5.77
2017-12-16T14:59:36.157Z,6.20
2017-12-16T15:02:03.472Z,5.67
2017-12-16T15:04:30.459Z,4.80
2017-12-16T15:06:57.741Z,3.87
2017-12-16T15:09:24.674Z,4.50
2017-12-16T15:11:52.057Z,4.30
2017-12-16T15:14:18.944Z,4.13
2017-12-16T15:16:45.900Z,4.30
2017-12-16T15:19:12.866Z,4.37
2017-12-16T15:21:40.184Z,4.70
2017-12-16T15:24:07.195Z,3.53
2017-12-16T15:26:34.080Z,3.57
2017-12-16T15:29:00.993Z,3.40
2017-12-16T15:31:27.905Z,3.50
2017-12-16T15:33:55.213Z,3.10
2017-12-16T15:36:22.186Z,2.90
2017-12-16T15:38:49.101Z,2.70
2017-12-16T15:41:16.080Z,3.10
2017-12-16T15:43:43.002Z,3.30
2017-12-16T15:46:09.917Z,2.83
2017-12-16T15:48:36.916Z,3.23
2017-12-16T15:51:03.813Z,2.90
2017-12-16T15:53:30.692Z,3.47
2017-12-16T15:55:57.625Z,3.33
2017-12-16T15:58:24.562Z,2.97
2017-12-16T16:00:51.482Z,2.93
2017-12-16T16:03:18.377Z,3.60
2017-12-16T16:05:45.696Z,3.50
2017-12-16T16:08:12.605Z,4.57
2017-12-16T16:10:39.996Z,4.20
2017-12-16T16:13:06.948Z,4.20
2017-12-16T16:15:33.854Z,5.07
2017-12-16T16:18:01.153Z,4.57
2017-12-16T16:20:28.069Z,3.93
2017-12-16T16:22:54.972Z,4.60
2017-12-16T16:25:21.910Z,5.00
2017-12-16T16:27:48.818Z,4.53
2017-12-16T16:30:15.740Z,5.60
2017-12-16T16:32:43.021Z,4.70
2017-12-16T16:35:09.940Z,4.90
2017-12-16T16:37:37.245Z,5.13
2017-12-16T16:40:04.134Z,4.87
2017-12-16T16:42:31.442Z,6.37
2017-12-16T16:44:58.525Z,4.73
2017-12-16T16:47:25.473Z,4.90
2017-12-16T16:49:52.790Z,5.70
2017-12-16T16:52:19.701Z,5.60
2017-12-16T16:54:46.617Z,4.90
2017-12-16T16:57:13.551Z,5.50
2017-12-16T16:59:40.428Z,5.60
2017-12-16T17:02:07.746Z,5.17
2017-12-16T17:04:34.626Z,5.40
2017-12-16T17:07:01.922Z,5.53
2017-12-16T17:09:28.933Z,5.60
2017-12-16T17:11:56.389Z,5.43
2017-12-16T17:14:23.677Z,5.07
2017-12-16T17:16:50.565Z,4.60
2017-12-16T17:19:17.513Z,5.90
2017-12-16T17:21:44.446Z,5.90
2017-12-16T17:24:11.332Z,5.87
2017-12-16T17:26:38.611Z,5.60
2017-12-16T17:29:05.517Z,6.00
2017-12-16T17:31:32.800Z,6.30
2017-12-16T17:33:59.704Z,5.47
2017-12-16T17:36:26.589Z,6.53
2017-12-16T17:38:53.498Z,5.27
2017-12-16T17:41:20.376Z,6.20
2017-12-16T17:43:47.285Z,6.50
2017-12-16T17:46:14.184Z,6.20
2017-12-16T17:48:41.093Z,5.77
2017-12-16T17:51:08.444Z,6.47
2017-12-16T17:53:35.322Z,5.83
2017-12-16T17:56:02.229Z,5.07
2017-12-16T17:58:29.109Z,5.97
2017-12-16T18:00:56.014Z,5.50
2017-12-16T18:03:22.922Z,6.10
2017-12-16T18:05:49.809Z,6.80
2017-12-16T18:08:16.721Z,6.00
2017-12-16T18:10:43.709Z,6.13
2017-12-16T18:13:11.066Z,7.27
2017-12-16T18:15:38.369Z,6.20
2017-12-16T18:18:05.361Z,7.07
2017-12-16T18:20:32.273Z,6.97
2017-12-16T18:22:59.153Z,6.60
2017-12-16T18:25:26.825Z,7.33
2017-12-16T18:27:54.167Z,7.10
2017-12-16T18:30:21.081Z,6.90
2017-12-16T18:32:48.014Z,8.10
2017-12-16T18:35:14.898Z,8.33
2017-12-16T18:37:42.222Z,7.43
2017-12-16T18:40:09.104Z,7.80
2017-12-16T18:42:36.048Z,8.13
2017-12-16T18:45:02.950Z,7.43
2017-12-16T18:47:29.849Z,7.43
2017-12-16T18:49:56.731Z,7.93
2017-12-16T18:52:23.652Z,6.80
2017-12-16T18:54:50.929Z,7.07
2017-12-16T18:57:17.834Z,8.07
2017-12-16T18:59:44.713Z,7.70
2017-12-16T19:02:11.725Z,7.87
2017-12-16T19:04:38.609Z,7.63
2017-12-16T19:07:05.637Z,7.33
2017-12-16T19:09:32.539Z,8.67
2017-12-16T19:11:59.477Z,7.80
2017-12-16T19:14:26.400Z,7.80
2017-12-16T19:16:53.409Z,7.60
2017-12-16T19:19:20.355Z,8.60
2017-12-16T19:21:47.262Z,6.93
2017-12-16T19:24:14.179Z,6.47
2017-12-16T19:26:41.072Z,7.97
2017-12-16T19:29:07.960Z,7.17
2017-12-16T19:31:35.270Z,7.40
2017-12-16T19:34:02.190Z,7.33
2017-12-16T19:36:29.098Z,7.40
2017-12-16T19:38:56.386Z,6.93
2017-12-16T19:41:23.292Z,7.97
2017-12-16T19:43:50.611Z,6.30
2017-12-16T19:46:17.580Z,7.50
2017-12-16T19:48:44.467Z,7.03
2017-12-16T19:51:11.365Z,7.17
2017-12-16T19:53:38.318Z,7.50
2017-12-16T19:56:05.658Z,7.20
2017-12-16T19:58:32.576Z,7.50
2017-12-16T20:00:59.460Z,7.50
2017-12-16T20:03:26.342Z,7.13
2017-12-16T20:05:53.388Z,7.43
2017-12-16T20:08:20.305Z,6.73
2017-12-16T20:10:47.185Z,7.77
2017-12-16T20:13:14.102Z,6.73
2017-12-16T20:15:41.380Z,7.37
2017-12-16T20:18:08.266Z,7.50
2017-12-16T20:20:35.237Z,7.40
2017-12-16T20:23:02.136Z,6.90
2017-12-16T20:25:29.042Z,6.93
2017-12-16T20:27:56.649Z,6.40
2017-12-16T20:30:23.552Z,7.50
2017-12-16T20:32:50.879Z,7.50
2017-12-16T20:35:17.773Z,6.13
2017-12-16T20:37:44.656Z,6.63
2017-12-16T20:40:11.569Z,6.10
2017-12-16T20:42:38.579Z,5.37
2017-12-16T20:45:05.886Z,5.97
2017-12-16T20:47:32.780Z,6.30
2017-12-16T20:49:59.684Z,5.83
2017-12-16T20:52:26.668Z,6.07
2017-12-16T20:54:53.593Z,6.40
2017-12-16T20:57:20.476Z,5.60
2017-12-16T20:59:47.745Z,5.50
2017-12-16T21:02:14.652Z,5.40
2017-12-16T21:04:41.718Z,6.30
2017-12-16T21:07:08.662Z,5.60
2017-12-16T21:09:35.573Z,5.77
2017-12-16T21:12:02.452Z,5.73
2017-12-16T21:14:29.368Z,5.03
2017-12-16T21:16:56.265Z,6.57
2017-12-16T21:19:23.149Z,5.27
2017-12-16T21:21:50.070Z,6.13
2017-12-16T21:24:16.982Z,6.90
2017-12-16T21:26:44.334Z,6.20
2017-12-16T21:29:11.697Z,5.23
2017-12-16T21:31:39.018Z,4.80
2017-12-16T21:34:05.896Z,5.40
2017-12-16T21:36:33.242Z,4.10
2017-12-16T21:39:00.174Z,5.20
2017-12-16T21:41:27.137Z,5.27
2017-12-16T21:43:54.433Z,5.50
2017-12-16T21:46:21.356Z,5.50
2017-12-16T21:48:48.645Z,4.40
2017-12-16T21:51:15.540Z,5.00
2017-12-16T21:53:42.891Z,5.13
2017-12-16T21:56:09.793Z,4.40
2017-12-16T21:58:36.685Z,5.67
2017-12-16T22:01:03.634Z,4.73
2017-12-16T22:03:30.474Z,4.50
2017-12-16T22:05:57.785Z,4.73
2017-12-16T22:08:24.769Z,5.77
2017-12-16T22:10:51.688Z,5.30
2017-12-16T22:13:18.569Z,5.40
2017-12-16T22:15:45.917Z,4.80
2017-12-16T22:18:12.822Z,4.13
2017-12-16T22:20:39.705Z,4.70
2017-12-16T22:23:06.613Z,5.07
2017-12-16T22:25:33.525Z,4.67
2017-12-16T22:28:00.826Z,5.27
2017-12-16T22:30:27.725Z,5.13
2017-12-16T22:32:55.037Z,4.77
2017-12-16T22:35:21.922Z,4.40
2017-12-16T22:37:49.233Z,5.43
2017-12-16T22:40:16.137Z,4.57
2017-12-16T22:42:43.030Z,4.17
2017-12-16T22:45:09.937Z,4.83
2017-12-16T22:47:36.817Z,3.63
2017-12-16T22:50:03.830Z,3.80
2017-12-16T22:52:30.719Z,5.13
2017-12-16T22:54:58.083Z,4.17
2017-12-16T22:57:24.973Z,3.67
2017-12-16T22:59:51.856Z,4.17
2017-12-16T23:02:18.795Z,3.30
2017-12-16T23:04:45.671Z,3.90
2017-12-16T23:07:12.558Z,4.07
2017-12-16T23:09:39.474Z,4.13
2017-12-16T23:12:06.770Z,4.10
2017-12-16T23:14:33.655Z,3.37
2017-12-16T23:17:00.569Z,3.50
2017-12-16T23:19:27.453Z,3.90
2017-12-16T23:21:54.350Z,4.07
2017-12-16T23:24:21.262Z,3.60
2017-12-16T23:26:48.569Z,4.33
2017-12-16T23:29:15.457Z,3.83
2017-12-16T23:31:42.771Z,3.80
2017-12-16T23:34:09.665Z,3.43
2017-12-16T23:36:36.568Z,4.00
2017-12-16T23:39:03.482Z,3.67
2017-12-16T23:41:30.405Z,3.90
2017-12-16T23:43:57.297Z,3.40
2017-12-16T23:46:24.181Z,3.60
2017-12-16T23:48:51.494Z,3.83
2017-12-16T23:51:18.373Z,3.87
2017-12-16T23:53:45.688Z,3.20
2017-12-16T23:56:12.581Z,3.57
2017-12-16T23:58:39.909Z,3.30
